Hauptseite
METAR-TAF:

METAR-TAF

Flughäfen :

Victoria, Mahé, Seychellen

Flughafen Seychellen

Breite: 04-40S, Länge: 055-31E, Höhe: 3 m

Beobachtung

Neuester Wetterbericht von vor 25 Minuten, um 05:00 UTC
Wind 4 kt aus Nord/Nordwest
Temperatur 30°C
Luftfeuchtigkeit 75%
Luftdruck 1013 hPa
Sichtweite 10 km oder mehr
Leicht bewölkt in der Höhe von 2000 ft

METAR: FSIA 260500Z 34004KT 9999 FEW020 30/25 Q1013 NOSIG

Zeit: 09:25 (05:25 UTC)

Prognose

Neuester Wetterbericht von vor 6 Stunden und 21 Minuten, um 23:04 UTC
Gültige Prognose vom 26 um 00 UTC bis 26 um 24 UTC
Wind 5 kt aus West/Südwest
Sichtweite 10 km oder mehr
Aufgelockert bewölkt in der Höhe von 1900 ft
Übergehend zu
vom 26 um 03 UTC bis 26 um 05 UTC
Wind 5 kt aus Nord

TAF: FSIA 252304Z 2600/2624 24005KT 9999 SCT019 BECMG 2603/2605 35005KT

Wetterbeobachtungen und Prognosen von mehr als 4000 Flughäfen (METAR und TAF Bericht).

Die verfügbaren Stationen werden durch gelbe und rote Markierungen auf der Karte dargestellt.

Führen Sie die Maus auf sie, um den Namen der Station zu sehen.

Darauf klicken, um die Beobachtung von Wetterbeobachtungen und Prognosen zu sehen.

Um die Karte zu ändern : klicken Sie auf den grünen Tasten mit einem schwarzen Kreuz Zum Vergrößern, auf den grünen Button mit einem Gedankenstrich zu verkleinern, oder auf die grünen Pfeile für benachbarte Karten.


METAR-TAF: